createdAt,value
2022-10-18T00:04:08.963Z,8.80
2022-10-18T00:09:14.026Z,10.00
2022-10-18T00:14:17.511Z,8.00
2022-10-18T00:19:23.761Z,8.70
2022-10-18T00:24:29.930Z,15.20
2022-10-18T00:29:34.484Z,5.80
2022-10-18T00:34:41.305Z,10.40
2022-10-18T00:39:46.354Z,5.90
2022-10-18T00:44:51.076Z,6.70
2022-10-18T00:49:59.091Z,6.00
2022-10-18T00:55:04.143Z,5.60
2022-10-18T01:00:10.955Z,13.10
2022-10-18T01:05:17.523Z,6.00
2022-10-18T01:10:46.424Z,5.80
2022-10-18T01:16:21.283Z,8.50
2022-10-18T01:21:50.767Z,10.00
2022-10-18T01:27:26.568Z,8.50
2022-10-18T01:32:39.446Z,6.80
2022-10-18T01:37:47.727Z,5.00
2022-10-18T01:42:55.393Z,5.80
2022-10-18T01:48:04.314Z,5.60
2022-10-18T01:53:26.333Z,6.80
2022-10-18T01:58:49.402Z,10.00
2022-10-18T02:03:58.213Z,8.10
2022-10-18T02:09:27.892Z,9.30
2022-10-18T02:14:32.517Z,6.40
2022-10-18T02:19:45.203Z,8.50
2022-10-18T02:24:56.513Z,6.90
2022-10-18T02:30:01.130Z,5.70
2022-10-18T02:35:20.979Z,14.90
2022-10-18T02:40:25.781Z,10.90
2022-10-18T02:45:29.410Z,8.60
2022-10-18T02:50:36.127Z,8.90
2022-10-18T02:55:40.376Z,6.40
2022-10-18T03:00:45.467Z,8.30
2022-10-18T03:05:53.401Z,7.30
2022-10-18T03:10:58.264Z,8.40
2022-10-18T03:16:03.028Z,7.10
2022-10-18T03:21:08.394Z,6.30
2022-10-18T03:26:13.494Z,6.50
2022-10-18T03:31:17.906Z,8.20
2022-10-18T03:36:21.232Z,8.60
2022-10-18T03:41:25.305Z,8.60
2022-10-18T03:46:29.110Z,7.70
2022-10-18T03:51:33.701Z,13.00
2022-10-18T03:56:38.581Z,9.10
2022-10-18T04:01:43.475Z,14.50
2022-10-18T04:06:47.925Z,8.70
2022-10-18T04:11:52.231Z,6.90
2022-10-18T04:16:55.870Z,13.90
2022-10-18T04:22:00.644Z,15.70
2022-10-18T04:27:06.679Z,10.70
2022-10-18T04:32:11.165Z,8.60
2022-10-18T04:37:14.816Z,8.30
2022-10-18T04:42:18.795Z,8.10
2022-10-18T04:47:23.836Z,8.20
2022-10-18T04:52:28.164Z,9.70
2022-10-18T04:57:32.545Z,8.90
2022-10-18T05:02:37.331Z,13.50
2022-10-18T05:07:41.013Z,8.20
2022-10-18T05:12:45.714Z,12.60
2022-10-18T05:17:49.487Z,10.70
2022-10-18T05:22:53.082Z,8.60
2022-10-18T05:27:58.001Z,9.60
2022-10-18T05:33:02.355Z,11.40
2022-10-18T05:38:07.051Z,8.50
2022-10-18T05:43:12.987Z,17.00
2022-10-18T05:48:17.993Z,13.10
2022-10-18T05:53:36.186Z,10.00
2022-10-18T05:58:42.348Z,21.30
2022-10-18T06:03:46.228Z,13.30
2022-10-18T06:08:51.276Z,16.00
2022-10-18T06:13:56.009Z,12.30
2022-10-18T06:19:00.497Z,18.40
2022-10-18T06:24:03.844Z,13.10
2022-10-18T06:29:07.683Z,9.20
2022-10-18T06:34:11.597Z,10.80
2022-10-18T06:39:15.740Z,11.50
2022-10-18T06:44:23.051Z,9.10
2022-10-18T06:49:27.952Z,8.70
2022-10-18T06:54:31.402Z,10.90
2022-10-18T06:59:35.913Z,7.70
2022-10-18T07:04:40.789Z,8.20
2022-10-18T07:09:46.829Z,7.60
2022-10-18T07:14:52.410Z,9.90
2022-10-18T07:19:57.118Z,17.20
2022-10-18T07:25:01.871Z,7.80
2022-10-18T07:30:08.471Z,15.90
2022-10-18T07:40:21.003Z,8.60
2022-10-18T07:45:25.583Z,9.20
2022-10-18T07:50:30.549Z,8.20
2022-10-18T07:55:34.027Z,7.10
2022-10-18T08:00:37.902Z,11.00
2022-10-18T08:05:42.392Z,10.10
2022-10-18T08:10:48.906Z,7.00
2022-10-18T08:16:00.180Z,10.40
2022-10-18T08:21:06.338Z,11.80
2022-10-18T08:26:15.433Z,12.40
2022-10-18T08:31:20.473Z,10.20
2022-10-18T08:36:25.119Z,14.40
2022-10-18T08:41:38.547Z,10.10
2022-10-18T08:46:47.815Z,12.90
2022-10-18T08:51:52.889Z,13.50
2022-10-18T08:57:02.332Z,11.20
2022-10-18T09:02:12.938Z,13.10
2022-10-18T09:08:01.560Z,13.10
2022-10-18T09:13:47.860Z,11.70
2022-10-18T09:19:09.202Z,12.60
2022-10-18T09:24:16.455Z,14.70
2022-10-18T09:29:48.611Z,15.70
2022-10-18T09:34:57.083Z,14.20
2022-10-18T09:40:18.766Z,16.60
2022-10-18T09:45:34.856Z,14.80
2022-10-18T09:50:46.308Z,17.20
2022-10-18T09:56:02.255Z,18.70
2022-10-18T10:01:08.409Z,22.10
2022-10-18T10:06:12.618Z,13.50
2022-10-18T10:11:35.180Z,15.00
2022-10-18T10:16:52.059Z,13.60
2022-10-18T10:22:00.620Z,21.40
2022-10-18T10:27:07.276Z,19.80
2022-10-18T10:32:14.115Z,14.40
2022-10-18T10:37:23.425Z,20.30
2022-10-18T10:42:27.103Z,18.60
2022-10-18T10:47:34.543Z,16.00
2022-10-18T10:52:40.658Z,14.50
2022-10-18T10:57:48.274Z,12.80
2022-10-18T11:03:27.879Z,23.40
2022-10-18T11:08:39.818Z,14.20
2022-10-18T11:13:57.018Z,17.60
2022-10-18T11:19:39.674Z,17.60
2022-10-18T11:24:44.206Z,14.00
2022-10-18T11:30:29.504Z,20.00
2022-10-18T11:36:03.575Z,17.20
2022-10-18T11:41:22.925Z,15.70
2022-10-18T11:46:47.113Z,19.40
2022-10-18T11:52:08.486Z,23.60
2022-10-18T11:57:31.866Z,17.40
2022-10-18T12:02:44.312Z,17.60
2022-10-18T12:07:52.241Z,16.70
2022-10-18T12:13:02.405Z,29.90
2022-10-18T12:18:15.400Z,18.10
2022-10-18T12:24:01.236Z,22.30
2022-10-18T12:29:33.844Z,17.10
2022-10-18T12:34:45.307Z,20.00
2022-10-18T12:40:32.304Z,16.60
2022-10-18T12:45:50.185Z,18.50
2022-10-18T12:51:18.972Z,17.90
2022-10-18T12:56:28.453Z,15.00
2022-10-18T13:01:52.509Z,18.30
2022-10-18T13:12:10.988Z,15.60
2022-10-18T13:17:15.493Z,19.30
2022-10-18T13:23:06.164Z,15.80
2022-10-18T13:28:17.079Z,18.90
2022-10-18T13:33:36.589Z,19.20
2022-10-18T13:38:59.393Z,19.30
2022-10-18T13:44:04.003Z,22.40
2022-10-18T13:49:44.919Z,17.50
2022-10-18T13:55:52.103Z,20.10
2022-10-18T14:01:14.404Z,21.60
2022-10-18T14:06:25.673Z,20.90
2022-10-18T14:11:49.782Z,19.20
2022-10-18T14:16:58.777Z,18.50
2022-10-18T14:22:19.201Z,17.30
2022-10-18T14:27:28.220Z,17.30
2022-10-18T14:32:32.898Z,26.50
2022-10-18T14:37:37.379Z,22.20
2022-10-18T14:42:48.761Z,22.50
2022-10-18T14:47:52.456Z,23.10
2022-10-18T14:52:56.143Z,27.80
2022-10-18T14:57:59.933Z,22.40
2022-10-18T15:03:11.114Z,24.60
2022-10-18T15:08:14.476Z,24.60
2022-10-18T15:13:18.181Z,17.80
2022-10-18T15:18:25.150Z,9.50
2022-10-18T15:23:34.426Z,4.10
2022-10-18T15:28:51.627Z,5.30
2022-10-18T15:34:15.702Z,2.20
2022-10-18T15:39:27.133Z,1.40
2022-10-18T15:44:35.366Z,3.20
2022-10-18T15:49:52.204Z,2.70
2022-10-18T15:54:58.301Z,3.40
2022-10-18T16:00:08.557Z,1.60
2022-10-18T16:05:18.436Z,2.00
2022-10-18T16:10:24.436Z,3.00
2022-10-18T16:15:28.441Z,2.60
2022-10-18T16:20:31.793Z,3.60
2022-10-18T16:25:39.026Z,2.20
2022-10-18T16:30:49.011Z,2.40
2022-10-18T16:35:54.931Z,3.20
2022-10-18T16:40:58.871Z,4.30
2022-10-18T16:46:04.021Z,4.20
2022-10-18T16:51:07.965Z,5.60
2022-10-18T16:56:33.528Z,5.10
2022-10-18T17:01:39.670Z,3.20
2022-10-18T17:06:47.050Z,4.40
2022-10-18T17:11:53.137Z,5.10
2022-10-18T17:16:57.519Z,3.80
2022-10-18T17:22:02.751Z,3.70
2022-10-18T17:27:07.357Z,3.80
2022-10-18T17:32:11.614Z,4.60
2022-10-18T17:37:15.598Z,4.20
2022-10-18T17:42:22.381Z,7.30
2022-10-18T17:47:29.901Z,4.10
2022-10-18T17:52:46.162Z,6.90
2022-10-18T17:57:56.092Z,7.50
2022-10-18T18:03:01.446Z,4.60
2022-10-18T18:08:05.788Z,3.80
2022-10-18T18:13:10.105Z,4.30
2022-10-18T18:18:14.524Z,2.90
2022-10-18T18:23:19.322Z,3.40
2022-10-18T18:28:23.458Z,3.90
2022-10-18T18:33:28.002Z,5.20
2022-10-18T18:38:36.045Z,5.60
2022-10-18T18:43:43.036Z,8.50
2022-10-18T18:48:47.146Z,5.20
2022-10-18T18:53:54.171Z,5.70
2022-10-18T18:58:59.715Z,6.50
2022-10-18T19:04:10.534Z,5.60
2022-10-18T19:09:20.114Z,7.40
2022-10-18T19:14:25.954Z,8.30
2022-10-18T19:19:31.131Z,8.40
2022-10-18T19:24:35.021Z,7.70
2022-10-18T19:29:39.918Z,4.20
2022-10-18T19:34:46.452Z,6.50
2022-10-18T19:39:50.547Z,7.50
2022-10-18T19:44:54.867Z,5.80
2022-10-18T19:50:00.013Z,3.90
2022-10-18T19:55:03.909Z,5.00
2022-10-18T20:00:09.863Z,4.80
2022-10-18T20:05:19.255Z,3.70
2022-10-18T20:10:23.115Z,7.60
2022-10-18T20:15:28.049Z,6.60
2022-10-18T20:20:35.406Z,5.60
2022-10-18T20:25:39.313Z,6.10
2022-10-18T20:30:42.782Z,7.70
2022-10-18T20:35:50.085Z,9.60
2022-10-18T20:40:55.471Z,7.10
2022-10-18T20:46:00.084Z,10.50
2022-10-18T20:51:13.273Z,11.20
2022-10-18T20:56:23.374Z,11.70
2022-10-18T21:01:30.379Z,12.60
2022-10-18T21:06:42.290Z,11.70
2022-10-18T21:11:51.414Z,10.00
2022-10-18T21:16:55.704Z,14.00
2022-10-18T21:22:03.652Z,11.90
2022-10-18T21:27:07.721Z,16.10
2022-10-18T21:32:15.110Z,15.90
2022-10-18T21:37:20.415Z,13.70
2022-10-18T21:42:26.765Z,12.60
2022-10-18T21:47:30.774Z,11.30
2022-10-18T21:52:35.465Z,19.50
2022-10-18T21:57:40.476Z,9.40
2022-10-18T22:02:46.039Z,12.10
2022-10-18T22:07:51.082Z,9.80
2022-10-18T22:12:55.573Z,13.70
2022-10-18T22:18:00.085Z,18.20
2022-10-18T22:23:04.561Z,11.70
2022-10-18T22:28:07.874Z,12.40
2022-10-18T22:33:11.982Z,12.40
2022-10-18T22:38:16.290Z,27.90
2022-10-18T22:43:20.908Z,11.30
2022-10-18T22:48:24.447Z,12.10
2022-10-18T22:53:28.093Z,10.80
2022-10-18T22:58:31.510Z,16.30
2022-10-18T23:03:35.945Z,18.50
2022-10-18T23:08:40.858Z,12.80
2022-10-18T23:13:45.750Z,11.30
2022-10-18T23:18:54.477Z,15.50
2022-10-18T23:23:59.090Z,13.80
2022-10-18T23:29:04.330Z,14.40
2022-10-18T23:34:10.682Z,18.50
2022-10-18T23:39:15.351Z,13.30
2022-10-18T23:44:19.608Z,14.20
2022-10-18T23:49:24.547Z,18.60
2022-10-18T23:54:29.334Z,11.00
2022-10-18T23:59:33.493Z,10.70
